Fortune Wing — VRHW2 — position and weather

sailwx.info

Track history (hours):
 
Tides and Currents Weather Stations Pressure Air Temp Water Temp Dewpoint Dewpoint Depression Visibility Wind Speed Wind Dir Waves Ship Positions

Fortune Wing

Last reported at 2014-Nov-14 08:20 UTC. Time now 2014-Nov-21 16:40 UTC.
Position N 35°43' W 026°42'.

Length 190 m; draft 10.5 m.

Type: Cargo ship. MMSI: 477389500.

Date/timePositionNaut miles runAvg speedWind from/ knotsBaromVisibWave heightAir tempDewpointWater temp
2014-Nov-14 08:20N 35°43' W 026°42'911.0
2014-Nov-14 07:30N 35°47' W 026°31'3210.9
2014-Nov-14 04:33N 35°59' W 025°54'1110.6
2014-Nov-14 03:33N 36°03' W 025°42'1110.6
2014-Nov-14 02:33N 36°07' W 025°30'1110.9
2014-Nov-14 01:33N 36°11' W 025°18'1110.6
2014-Nov-14 00:33N 36°15' W 025°05'1110.8
2014-Nov-13 23:33N 36°19' W 024°53'1110.9
2014-Nov-13 22:33N 36°23' W 024°40'1111.0
2014-Nov-13 21:33N 36°27' W 024°28'1111.0
2014-Nov-13 20:33N 36°30' W 024°15'1110.8
2014-Nov-13 19:34N 36°34' W 024°02'1110.8
2014-Nov-13 18:33N 36°37' W 023°49'1110.6
2014-Nov-13 17:33N 36°41' W 023°37'1010.3
2014-Nov-13 16:33N 36°45' W 023°25'  
2014-Nov-08 18:10N 49°50' W 003°27'6 9.1
2014-Nov-08 17:31N 49°53' W 003°19'1010.0
2014-Nov-08 16:33N 49°56' W 003°05'1211.8
2014-Nov-08 15:33N 49°60' W 002°47'8110.1
2014-Nov-08 07:34N 50°22' W 000°46'9 8.5
2014-Nov-08 06:33N 50°25' W 000°33'1110.9
2014-Nov-08 05:33N 50°28' W 000°17'1212.1
2014-Nov-08 04:34N 50°31' E 000°01'1312.7
2014-Nov-08 03:34N 50°35' E 000°20'1212.0
2014-Nov-08 02:33N 50°39' E 000°38'1111.2
2014-Nov-08 01:34N 50°45' E 000°53'10 9.7
2014-Nov-08 00:33N 50°52' E 001°04'9 9.2
2014-Nov-07 23:33N 50°58' E 001°16'8 8.2
2014-Nov-07 22:34N 51°03' E 001°25'1010.2
2014-Nov-07 21:34N 51°10' E 001°38'1212.3
2014-Nov-07 20:33N 51°19' E 001°51'1313.1
2014-Nov-07 19:33N 51°29' E 002°03'1211.9
2014-Nov-07 18:34N 51°39' E 002°15'1110.9
2014-Nov-07 17:33N 51°47' E 002°26'18 9.0
2014-Nov-07 15:33N 52°01' E 002°45'17 8.3
2014-Nov-07 13:32N 52°14' E 003°03'8 7.9
2014-Nov-07 12:31N 52°20' E 003°11'8 8.4
2014-Nov-07 11:33N 52°27' E 003°18'20 9.9
2014-Nov-07 09:34N 52°43' E 003°37'1311.0
2014-Nov-07 08:23N 52°52' E 003°51'1011.5
2014-Nov-07 07:33N 52°59' E 004°03'1110.9
2014-Nov-07 06:34N 53°06' E 004°16'1110.3
2014-Nov-07 05:31N 53°15' E 004°27'1010.0
2014-Nov-07 04:33N 53°24' E 004°32'10 9.9
2014-Nov-07 03:33N 53°33' E 004°37'1110.9
2014-Nov-07 02:33N 53°44' E 004°42'1211.9
2014-Nov-07 01:34N 53°55' E 004°48'1212.0
2014-Nov-07 00:34N 54°06' E 004°54'1212.1
2014-Nov-06 23:33N 54°17' E 005°03'1312.0
2014-Nov-06 22:28N 54°29' E 005°13'24612.1
2014-Nov-06 02:11N 57°45' E 009°40'1113.1
2014-Nov-06 01:21N 57°50' E 009°58'1012.7
2014-Nov-06 00:33N 57°51' E 010°17'1312.8
2014-Nov-05 23:34N 57°51' E 010°41'8 8.4
2014-Nov-05 22:34N 57°43' E 010°42'3 2.7
2014-Nov-05 21:33N 57°41' E 010°38'0 0.0
2014-Nov-05 20:32N 57°41' E 010°38'0 0.0
2014-Nov-05 19:32N 57°41' E 010°38'0 0.0
2014-Nov-05 18:26N 57°41' E 010°38'0 0.0
2014-Nov-05 17:32N 57°41' E 010°38'0 0.0
2014-Nov-05 16:32N 57°41' E 010°38'0 0.0
2014-Nov-05 15:32N 57°41' E 010°38'0 0.0
2014-Nov-05 14:23N 57°41' E 010°38'0 0.0
2014-Nov-05 13:29N 57°41' E 010°38'0 0.0
2014-Nov-05 12:29N 57°41' E 010°38'0 0.0
2014-Nov-05 11:32N 57°41' E 010°38'0 0.0
2014-Nov-05 10:32N 57°41' E 010°38'0 0.0
2014-Nov-05 09:29N 57°41' E 010°38'0 0.0
2014-Nov-05 08:23N 57°41' E 010°38'0 0.3
2014-Nov-05 07:33N 57°41' E 010°38'8 8.4
2014-Nov-05 06:33N 57°36' E 010°51'1313.1
2014-Nov-05 05:33N 57°32' E 011°14'1212.1
2014-Nov-05 04:33N 57°23' E 011°29'1313.1
2014-Nov-05 03:32N 57°11' E 011°38'15910.3
2014-Nov-04 12:07N 54°31' E 011°27'712.1
2014-Nov-04 11:33N 54°28' E 011°37'1111.2
2014-Nov-04 10:33N 54°26' E 011°56'1010.0
2014-Nov-04 09:33N 54°29' E 012°13'1111.2
2014-Nov-04 08:33N 54°39' E 012°23'  
Track history (hours):
 
Tides and Currents Weather Stations Pressure Air Temp Water Temp Dewpoint Dewpoint Depression Visibility Wind Speed Wind Dir Waves Ship Positions

Fortune Wing

Last reported at 2014-Nov-14 08:20 UTC. Time now 2014-Nov-21 16:40 UTC.
Position N 35°43' W 026°42'.

Length 190 m; draft 10.5 m.

Type: Cargo ship. MMSI: 477389500.

Date/timePositionNaut miles runAvg speedWind from/ knotsBaromVisibWave heightAir tempDewpointWater temp
2014-Nov-14 08:20N 35°43' W 026°42'911.0
2014-Nov-14 07:30N 35°47' W 026°31'3210.9
2014-Nov-14 04:33N 35°59' W 025°54'1110.6
2014-Nov-14 03:33N 36°03' W 025°42'1110.6
2014-Nov-14 02:33N 36°07' W 025°30'1110.9
2014-Nov-14 01:33N 36°11' W 025°18'1110.6
2014-Nov-14 00:33N 36°15' W 025°05'1110.8
2014-Nov-13 23:33N 36°19' W 024°53'1110.9
2014-Nov-13 22:33N 36°23' W 024°40'1111.0
2014-Nov-13 21:33N 36°27' W 024°28'1111.0
2014-Nov-13 20:33N 36°30' W 024°15'1110.8
2014-Nov-13 19:34N 36°34' W 024°02'1110.8
2014-Nov-13 18:33N 36°37' W 023°49'1110.6
2014-Nov-13 17:33N 36°41' W 023°37'1010.3
2014-Nov-13 16:33N 36°45' W 023°25'  
2014-Nov-08 18:10N 49°50' W 003°27'6 9.1
2014-Nov-08 17:31N 49°53' W 003°19'1010.0
2014-Nov-08 16:33N 49°56' W 003°05'1211.8
2014-Nov-08 15:33N 49°60' W 002°47'8110.1
2014-Nov-08 07:34N 50°22' W 000°46'9 8.5
2014-Nov-08 06:33N 50°25' W 000°33'1110.9
2014-Nov-08 05:33N 50°28' W 000°17'1212.1
2014-Nov-08 04:34N 50°31' E 000°01'1312.7
2014-Nov-08 03:34N 50°35' E 000°20'1212.0
2014-Nov-08 02:33N 50°39' E 000°38'1111.2
2014-Nov-08 01:34N 50°45' E 000°53'10 9.7
2014-Nov-08 00:33N 50°52' E 001°04'9 9.2
2014-Nov-07 23:33N 50°58' E 001°16'8 8.2
2014-Nov-07 22:34N 51°03' E 001°25'1010.2
2014-Nov-07 21:34N 51°10' E 001°38'1212.3
2014-Nov-07 20:33N 51°19' E 001°51'1313.1
2014-Nov-07 19:33N 51°29' E 002°03'1211.9
2014-Nov-07 18:34N 51°39' E 002°15'1110.9
2014-Nov-07 17:33N 51°47' E 002°26'18 9.0
2014-Nov-07 15:33N 52°01' E 002°45'17 8.3
2014-Nov-07 13:32N 52°14' E 003°03'8 7.9
2014-Nov-07 12:31N 52°20' E 003°11'8 8.4
2014-Nov-07 11:33N 52°27' E 003°18'20 9.9
2014-Nov-07 09:34N 52°43' E 003°37'1311.0
2014-Nov-07 08:23N 52°52' E 003°51'1011.5
2014-Nov-07 07:33N 52°59' E 004°03'1110.9
2014-Nov-07 06:34N 53°06' E 004°16'1110.3
2014-Nov-07 05:31N 53°15' E 004°27'1010.0
2014-Nov-07 04:33N 53°24' E 004°32'10 9.9
2014-Nov-07 03:33N 53°33' E 004°37'1110.9
2014-Nov-07 02:33N 53°44' E 004°42'1211.9
2014-Nov-07 01:34N 53°55' E 004°48'1212.0
2014-Nov-07 00:34N 54°06' E 004°54'1212.1
2014-Nov-06 23:33N 54°17' E 005°03'1312.0
2014-Nov-06 22:28N 54°29' E 005°13'24612.1
2014-Nov-06 02:11N 57°45' E 009°40'1113.1
2014-Nov-06 01:21N 57°50' E 009°58'1012.7
2014-Nov-06 00:33N 57°51' E 010°17'1312.8
2014-Nov-05 23:34N 57°51' E 010°41'8 8.4
2014-Nov-05 22:34N 57°43' E 010°42'3 2.7
2014-Nov-05 21:33N 57°41' E 010°38'0 0.0
2014-Nov-05 20:32N 57°41' E 010°38'0 0.0
2014-Nov-05 19:32N 57°41' E 010°38'0 0.0
2014-Nov-05 18:26N 57°41' E 010°38'0 0.0
2014-Nov-05 17:32N 57°41' E 010°38'0 0.0
2014-Nov-05 16:32N 57°41' E 010°38'0 0.0
2014-Nov-05 15:32N 57°41' E 010°38'0 0.0
2014-Nov-05 14:23N 57°41' E 010°38'0 0.0
2014-Nov-05 13:29N 57°41' E 010°38'0 0.0
2014-Nov-05 12:29N 57°41' E 010°38'0 0.0
2014-Nov-05 11:32N 57°41' E 010°38'0 0.0
2014-Nov-05 10:32N 57°41' E 010°38'0 0.0
2014-Nov-05 09:29N 57°41' E 010°38'0 0.0
2014-Nov-05 08:23N 57°41' E 010°38'0 0.3
2014-Nov-05 07:33N 57°41' E 010°38'8 8.4
2014-Nov-05 06:33N 57°36' E 010°51'1313.1
2014-Nov-05 05:33N 57°32' E 011°14'1212.1
2014-Nov-05 04:33N 57°23' E 011°29'1313.1
2014-Nov-05 03:32N 57°11' E 011°38'15910.3
2014-Nov-04 12:07N 54°31' E 011°27'712.1
2014-Nov-04 11:33N 54°28' E 011°37'1111.2
2014-Nov-04 10:33N 54°26' E 011°56'1010.0
2014-Nov-04 09:33N 54°29' E 012°13'1111.2
2014-Nov-04 08:33N 54°39' E 012°23'  

Dump ship's entire track history